Time;durP1;ratioP1;P1;durP2;ratioP2;P2;SDS_P1;SDS_P2;PMS_P1;PMS_P2;Temp;Humidity;BMP_temperature;BMP_pressure;BME280_temperature;BME280_humidity;BME280_pressure;Samples;Min_cycle;Max_cycle;Signal;HPM_P1;HPM_P2
2022/01/16 00:00:18;;;;;;;18.27;13.23;;;4.90;99.90;;;;;;5053970;28;20230;-58
2022/01/16 00:05:31;;;;;;;18.03;12.57;;;4.60;99.90;;;;;;5054302;28;20324;-59
2022/01/16 00:07:58;;;;;;;17.40;11.67;;;4.50;99.90;;;;;;5054265;28;20209;-58
2022/01/16 00:10:26;;;;;;;17.70;13.00;;;4.40;99.90;;;;;;5053869;28;20222;-59
2022/01/16 00:12:58;;;;;;;17.73;12.20;;;4.20;99.90;;;;;;5054030;28;20229;-59
2022/01/16 00:15:26;;;;;;;18.40;12.40;;;4.10;99.90;;;;;;5053709;28;20284;-58
2022/01/16 00:17:56;;;;;;;17.73;12.87;;;4.00;99.90;;;;;;5053960;28;20240;-59
2022/01/16 00:20:25;;;;;;;20.17;13.17;;;4.00;99.90;;;;;;5053569;28;20237;-59
2022/01/16 00:22:52;;;;;;;16.47;12.17;;;3.90;99.90;;;;;;5053875;28;20278;-58
2022/01/16 00:25:19;;;;;;;18.83;13.30;;;3.90;99.90;;;;;;5053839;28;20288;-58
2022/01/16 00:27:46;;;;;;;19.30;13.27;;;4.00;99.90;;;;;;5053659;28;20240;-58
2022/01/16 00:30:13;;;;;;;18.77;12.73;;;4.00;99.90;;;;;;5053290;28;20236;-58
2022/01/16 00:32:41;;;;;;;18.30;12.93;;;4.10;99.90;;;;;;5053757;28;20205;-58
2022/01/16 00:35:09;;;;;;;17.93;12.93;;;4.10;99.90;;;;;;5053654;28;20227;-59
2022/01/16 00:37:35;;;;;;;17.27;12.03;;;4.20;99.90;;;;;;5053554;28;20201;-59
2022/01/16 00:40:02;;;;;;;18.10;12.30;;;4.10;99.90;;;;;;5053554;28;20226;-59
2022/01/16 00:42:30;;;;;;;18.07;13.07;;;4.00;99.90;;;;;;5053052;28;20217;-58
2022/01/16 00:44:56;;;;;;;17.63;12.73;;;4.00;99.90;;;;;;5053682;28;20213;-59
2022/01/16 00:47:23;;;;;;;20.20;14.13;;;4.00;99.90;;;;;;5053401;28;20228;-59
2022/01/16 00:49:51;;;;;;;17.77;12.87;;;4.10;99.90;;;;;;5053243;28;20225;-59
2022/01/16 00:52:19;;;;;;;19.30;13.00;;;4.10;99.90;;;;;;5053587;28;20259;-58
2022/01/16 00:54:45;;;;;;;20.50;13.50;;;4.30;99.90;;;;;;5054163;28;20231;-58
2022/01/16 00:57:12;;;;;;;17.43;13.07;;;4.30;99.90;;;;;;5053935;28;20206;-59
2022/01/16 00:59:40;;;;;;;20.63;13.93;;;4.20;99.90;;;;;;5053976;28;20259;-59
2022/01/16 01:02:06;;;;;;;19.00;13.57;;;4.30;99.90;;;;;;5053194;28;20210;-59
2022/01/16 01:04:33;;;;;;;17.57;13.03;;;4.20;99.90;;;;;;5053195;28;20210;-59
2022/01/16 01:07:01;;;;;;;16.30;12.50;;;4.10;99.90;;;;;;5053136;28;20206;-59
2022/01/16 01:09:28;;;;;;;18.90;13.60;;;4.10;99.90;;;;;;5052780;28;20228;-59
2022/01/16 01:11:54;;;;;;;19.57;13.87;;;4.10;99.90;;;;;;5052812;28;20232;-59
2022/01/16 01:14:26;;;;;;;20.83;13.80;;;4.20;99.90;;;;;;5052996;28;20213;-59
2022/01/16 01:16:54;;;;;;;18.00;13.07;;;4.30;99.90;;;;;;5052892;28;20587;-59
2022/01/16 01:19:27;;;;;;;19.03;13.47;;;4.40;99.90;;;;;;5052673;28;20419;-59
2022/01/16 01:21:54;;;;;;;19.90;13.93;;;4.40;99.90;;;;;;5052522;28;20304;-59
2022/01/16 01:24:23;;;;;;;21.53;14.53;;;4.40;99.90;;;;;;5052553;28;20214;-59
2022/01/16 01:26:55;;;;;;;19.70;13.67;;;4.30;99.90;;;;;;5052994;28;20205;-60
2022/01/16 01:29:22;;;;;;;18.33;12.87;;;4.30;99.90;;;;;;5052697;28;20245;-59
2022/01/16 01:31:51;;;;;;;19.87;14.03;;;4.20;99.90;;;;;;5052322;28;20201;-59
2022/01/16 01:34:18;;;;;;;21.37;13.97;;;4.30;99.90;;;;;;5052485;28;20205;-59
2022/01/16 01:36:48;;;;;;;20.73;14.60;;;4.30;99.90;;;;;;5052301;28;20209;-59
2022/01/16 01:39:15;;;;;;;18.27;13.40;;;4.30;99.90;;;;;;5052512;28;20221;-59
2022/01/16 01:41:44;;;;;;;19.50;14.30;;;4.20;99.90;;;;;;5052217;28;20324;-58
2022/01/16 01:52:21;;;;;;;21.00;14.30;;;4.40;99.90;;;;;;5052067;28;20197;-58
2022/01/16 01:54:48;;;;;;;21.97;14.73;;;4.50;99.90;;;;;;5051951;28;20612;-59
2022/01/16 01:57:16;;;;;;;22.40;14.37;;;4.50;99.90;;;;;;5052104;28;20213;-58
2022/01/16 01:59:42;;;;;;;19.73;13.77;;;4.60;99.90;;;;;;5051741;28;20229;-59
2022/01/16 02:02:09;;;;;;;20.33;14.20;;;4.50;99.90;;;;;;5051912;28;20275;-59
2022/01/16 02:04:36;;;;;;;20.10;13.97;;;4.00;99.90;;;;;;5051945;28;20673;-59
2022/01/16 02:07:03;;;;;;;21.33;15.27;;;4.00;99.90;;;;;;5051968;28;20632;-59
2022/01/16 02:09:31;;;;;;;24.83;15.33;;;4.10;99.90;;;;;;5051920;28;20452;-59
2022/01/16 02:11:58;;;;;;;21.73;15.10;;;4.20;99.90;;;;;;5051429;28;20600;-59
2022/01/16 02:14:30;;;;;;;26.77;17.70;;;4.40;99.90;;;;;;5052037;28;20705;-59
2022/01/16 02:28:08;;;;;;;26.60;17.57;;;4.40;99.90;;;;;;5051850;28;20201;-59
2022/01/16 02:31:00;;;;;;;28.07;17.37;;;4.50;99.90;;;;;;5051399;28;20236;-59
2022/01/16 02:36:23;;;;;;;23.77;16.57;;;4.50;99.90;;;;;;5051971;28;20221;-59
2022/01/16 02:38:51;;;;;;;25.20;16.37;;;4.50;99.90;;;;;;5051660;28;20223;-59
2022/01/16 02:41:18;;;;;;;24.70;16.27;;;4.50;99.90;;;;;;5051550;28;20229;-59
2022/01/16 02:43:49;;;;;;;24.53;15.87;;;4.50;99.90;;;;;;5051721;28;20665;-59
2022/01/16 02:48:59;;;;;;;24.93;16.53;;;4.50;99.90;;;;;;5051665;28;20594;-59
2022/01/16 02:51:28;;;;;;;24.93;16.30;;;4.20;99.90;;;;;;5051377;28;20271;-59
2022/01/16 02:53:56;;;;;;;23.23;16.27;;;4.20;99.90;;;;;;5051474;28;20216;-59
2022/01/16 02:56:23;;;;;;;24.33;16.47;;;4.10;99.90;;;;;;5051693;28;20256;-59
2022/01/16 02:58:51;;;;;;;24.60;16.67;;;4.00;99.90;;;;;;5053520;28;20209;-60
2022/01/16 03:01:18;;;;;;;25.57;17.43;;;4.00;99.90;;;;;;5054897;28;20225;-59
2022/01/16 03:03:45;;;;;;;27.50;17.87;;;4.00;99.90;;;;;;5055335;28;20213;-60
2022/01/16 03:06:12;;;;;;;26.23;16.70;;;4.00;99.90;;;;;;5055085;28;20205;-59
2022/01/16 03:08:39;;;;;;;26.43;17.33;;;3.90;99.90;;;;;;5055077;28;20340;-59
2022/01/16 03:11:20;;;;;;;28.87;18.67;;;3.90;99.90;;;;;;5054792;28;20723;-59
2022/01/16 03:13:48;;;;;;;26.03;17.20;;;4.00;99.90;;;;;;5055194;28;20209;-59
2022/01/16 03:16:15;;;;;;;27.03;17.97;;;4.00;99.90;;;;;;5055215;28;20241;-59
2022/01/16 03:24:10;;;;;;;28.67;18.73;;;3.70;99.90;;;;;;5054968;28;20205;-59
2022/01/16 03:26:39;;;;;;;27.17;17.80;;;3.70;99.90;;;;;;5054882;28;20210;-59
2022/01/16 03:29:06;;;;;;;27.50;17.60;;;3.80;99.90;;;;;;5054483;28;20240;-59
2022/01/16 03:31:32;;;;;;;28.90;17.87;;;3.80;99.90;;;;;;5054816;28;20213;-59
2022/01/16 03:33:59;;;;;;;27.80;17.87;;;3.90;99.90;;;;;;5054865;28;20201;-59
2022/01/16 03:36:26;;;;;;;28.70;17.80;;;3.80;99.90;;;;;;5054762;28;20255;-59
2022/01/16 03:38:53;;;;;;;28.70;18.30;;;3.80;99.90;;;;;;5054705;28;20252;-59
2022/01/16 03:41:19;;;;;;;30.77;18.23;;;3.80;99.90;;;;;;5054347;28;20288;-59
2022/01/16 03:43:47;;;;;;;30.10;18.53;;;3.80;99.90;;;;;;5054421;28;20229;-60
2022/01/16 03:46:14;;;;;;;27.97;17.33;;;3.80;99.90;;;;;;5054718;28;20283;-59
2022/01/16 03:48:41;;;;;;;28.87;18.80;;;3.80;99.90;;;;;;5054402;28;20704;-60
2022/01/16 03:51:07;;;;;;;25.93;16.90;;;3.90;99.90;;;;;;5054143;28;20603;-59
2022/01/16 03:53:34;;;;;;;29.63;18.57;;;3.90;99.90;;;;;;5054914;28;20209;-60
2022/01/16 03:56:01;;;;;;;26.60;16.40;;;4.00;99.90;;;;;;5054539;28;20213;-59
2022/01/16 03:58:27;;;;;;;29.97;17.97;;;4.00;99.90;;;;;;5054136;28;20210;-59
2022/01/16 04:00:55;;;;;;;26.27;16.90;;;3.90;99.90;;;;;;5054093;28;20230;-59
2022/01/16 04:03:22;;;;;;;29.37;17.10;;;3.80;99.90;;;;;;5054366;28;20627;-59
2022/01/16 04:05:49;;;;;;;29.30;18.20;;;3.80;99.90;;;;;;5054362;28;20217;-59
2022/01/16 04:08:15;;;;;;;29.77;18.37;;;3.90;99.90;;;;;;5054663;28;20206;-59
2022/01/16 04:10:42;;;;;;;31.43;18.47;;;3.90;99.90;;;;;;5053511;28;20221;-59
2022/01/16 04:13:11;;;;;;;29.43;17.63;;;3.90;99.90;;;;;;5053840;28;20267;-59
2022/01/16 04:15:38;;;;;;;32.67;18.63;;;3.90;99.90;;;;;;5054292;28;20211;-60
2022/01/16 04:18:08;;;;;;;30.00;18.33;;;4.00;99.90;;;;;;5054108;28;20299;-59
2022/01/16 04:20:35;;;;;;;28.17;17.73;;;3.90;99.90;;;;;;5053556;28;20230;-59
2022/01/16 04:23:04;;;;;;;32.10;18.73;;;3.90;99.90;;;;;;5053824;28;20216;-59
2022/01/16 04:25:31;;;;;;;33.43;18.20;;;3.80;99.90;;;;;;5053872;28;20205;-60
2022/01/16 04:27:58;;;;;;;32.77;18.77;;;3.80;99.90;;;;;;5053983;28;20209;-59
2022/01/16 04:30:25;;;;;;;31.40;18.50;;;3.80;99.90;;;;;;5059923;22;20285;-53
2022/01/16 04:32:51;;;;;;;28.47;17.73;;;3.80;99.90;;;;;;5028481;28;20210;-53
2022/01/16 04:35:20;;;;;;;26.67;17.00;;;3.70;99.90;;;;;;5033721;28;20206;-53
2022/01/16 04:37:47;;;;;;;29.80;18.20;;;3.60;99.90;;;;;;5033890;28;20211;-53
2022/01/16 04:40:15;;;;;;;33.43;18.57;;;3.60;99.90;;;;;;5033472;28;20655;-53
2022/01/16 04:45:26;;;;;;;35.07;19.20;;;3.60;99.90;;;;;;5033563;28;20280;-53
2022/01/16 04:47:53;;;;;;;31.87;18.53;;;3.50;99.90;;;;;;5033507;28;20682;-53
2022/01/16 04:50:22;;;;;;;29.13;17.63;;;3.50;99.90;;;;;;5033197;28;20721;-54
2022/01/16 04:52:50;;;;;;;30.53;17.47;;;3.60;99.90;;;;;;5033338;28;20260;-53
2022/01/16 04:55:17;;;;;;;32.97;19.17;;;3.60;99.90;;;;;;5033723;28;20564;-53
2022/01/16 04:57:44;;;;;;;30.87;17.33;;;3.50;99.90;;;;;;5033203;28;20598;-53
2022/01/16 05:00:13;;;;;;;31.20;17.17;;;3.50;99.90;;;;;;5033172;28;20263;-53
2022/01/16 05:02:40;;;;;;;27.37;17.03;;;3.50;99.90;;;;;;5032911;28;20232;-53
2022/01/16 05:05:08;;;;;;;29.07;17.37;;;3.50;99.90;;;;;;5032968;28;20632;-53
2022/01/16 05:07:36;;;;;;;27.87;17.40;;;3.40;99.90;;;;;;5033302;28;20249;-53
2022/01/16 05:10:05;;;;;;;27.63;16.90;;;3.40;99.90;;;;;;5032976;28;20710;-53
2022/01/16 05:12:34;;;;;;;33.53;18.67;;;3.50;99.90;;;;;;5032880;28;20206;-53
2022/01/16 05:17:46;;;;;;;32.80;17.90;;;3.60;99.90;;;;;;5033020;28;20500;-53
2022/01/16 05:20:13;;;;;;;31.30;19.07;;;3.60;99.90;;;;;;5032419;28;20229;-53
2022/01/16 05:22:42;;;;;;;30.93;18.17;;;3.60;99.90;;;;;;5032360;28;20226;-53
2022/01/16 05:25:11;;;;;;;31.27;18.87;;;3.70;99.90;;;;;;5032652;28;20229;-54
2022/01/16 05:27:38;;;;;;;32.73;18.33;;;3.80;99.90;;;;;;5032713;28;20256;-53
2022/01/16 05:30:06;;;;;;;27.03;17.03;;;3.70;99.90;;;;;;5032451;28;20245;-53
2022/01/16 05:32:33;;;;;;;32.17;17.90;;;3.70;99.90;;;;;;5032525;28;20670;-53
2022/01/16 05:35:00;;;;;;;28.53;18.27;;;3.60;99.90;;;;;;5032763;28;20643;-53
2022/01/16 05:37:27;;;;;;;30.07;17.67;;;3.60;99.90;;;;;;5032633;28;20206;-54
2022/01/16 05:39:56;;;;;;;24.73;16.53;;;3.50;99.90;;;;;;5032544;28;20321;-53
2022/01/16 05:42:22;;;;;;;24.77;16.27;;;3.50;99.90;;;;;;5032095;28;20280;-52
2022/01/16 05:44:49;;;;;;;25.13;16.13;;;3.50;99.90;;;;;;5032395;28;20214;-54
2022/01/16 05:47:15;;;;;;;25.23;16.53;;;3.40;99.90;;;;;;5032687;28;20213;-53
2022/01/16 05:49:42;;;;;;;27.17;17.47;;;3.40;99.90;;;;;;5032277;28;20230;-53
2022/01/16 05:52:12;;;;;;;24.43;15.83;;;3.30;99.90;;;;;;5032211;28;20675;-53
2022/01/16 05:54:38;;;;;;;28.57;17.50;;;3.30;99.90;;;;;;5032342;28;20276;-53
2022/01/16 05:57:07;;;;;;;23.40;16.30;;;3.30;99.90;;;;;;5032185;28;20641;-55
2022/01/16 05:59:34;;;;;;;27.43;17.90;;;3.30;99.90;;;;;;5032595;28;20317;-53
2022/01/16 06:02:01;;;;;;;26.07;16.70;;;3.30;99.90;;;;;;5031851;28;20245;-53
2022/01/16 06:04:28;;;;;;;23.97;17.00;;;3.50;99.90;;;;;;5032199;28;20213;-54
2022/01/16 06:06:54;;;;;;;25.60;16.73;;;3.60;99.90;;;;;;5032097;28;20696;-53
2022/01/16 06:09:21;;;;;;;28.20;17.33;;;3.70;99.90;;;;;;5032027;28;20230;-53
2022/01/16 06:11:48;;;;;;;27.03;17.03;;;3.70;99.90;;;;;;5031808;28;20210;-54
2022/01/16 06:14:16;;;;;;;26.70;17.07;;;3.70;99.90;;;;;;5032320;28;20206;-53
2022/01/16 06:16:42;;;;;;;25.53;16.90;;;3.70;99.90;;;;;;5032241;28;20210;-54
2022/01/16 06:19:09;;;;;;;26.93;16.80;;;3.80;99.90;;;;;;5032021;28;20370;-53
2022/01/16 06:21:36;;;;;;;27.47;17.57;;;3.90;99.90;;;;;;5031696;28;20229;-53
2022/01/16 06:24:03;;;;;;;26.03;16.00;;;3.90;99.90;;;;;;5032109;28;20210;-54
2022/01/16 06:26:30;;;;;;;27.10;16.87;;;4.00;99.90;;;;;;5032085;28;20202;-53
2022/01/16 06:28:57;;;;;;;25.60;17.40;;;4.00;99.90;;;;;;5031950;28;20263;-53
2022/01/16 06:31:25;;;;;;;27.10;17.33;;;4.00;99.90;;;;;;5031899;28;20198;-53
2022/01/16 06:33:51;;;;;;;26.80;16.90;;;4.00;99.90;;;;;;5035931;28;20558;-53
2022/01/16 06:36:18;;;;;;;29.23;18.07;;;3.90;99.90;;;;;;5035839;28;20280;-56
2022/01/16 06:38:46;;;;;;;26.10;16.87;;;3.90;99.90;;;;;;5035821;28;20264;-53
2022/01/16 06:41:12;;;;;;;27.07;16.17;;;3.80;99.90;;;;;;5035374;28;20741;-52
2022/01/16 06:43:39;;;;;;;26.43;16.70;;;3.90;99.90;;;;;;5035914;28;20263;-53
2022/01/16 06:46:06;;;;;;;25.10;17.40;;;3.90;99.90;;;;;;5035901;28;20214;-52
2022/01/16 06:48:34;;;;;;;29.50;18.00;;;3.80;99.90;;;;;;5035726;28;20272;-53
2022/01/16 06:51:01;;;;;;;30.03;19.07;;;3.80;99.90;;;;;;5035386;28;20229;-53
2022/01/16 06:53:28;;;;;;;27.77;18.07;;;3.70;99.90;;;;;;5035507;28;20247;-52
2022/01/16 06:55:55;;;;;;;27.07;17.93;;;3.70;99.90;;;;;;5035464;28;20609;-55
2022/01/16 06:58:22;;;;;;;26.60;16.90;;;3.70;99.90;;;;;;5035564;28;20210;-53
2022/01/16 07:00:48;;;;;;;26.10;16.70;;;3.80;99.90;;;;;;5035201;28;20234;-52
2022/01/16 07:03:15;;;;;;;25.57;16.23;;;3.70;99.90;;;;;;5035481;28;20226;-53
2022/01/16 07:05:43;;;;;;;21.13;15.13;;;3.70;99.90;;;;;;5035330;28;20252;-53
2022/01/16 07:08:10;;;;;;;25.50;17.97;;;3.60;99.90;;;;;;5035292;28;20221;-52
2022/01/16 07:10:37;;;;;;;25.13;16.30;;;3.50;99.90;;;;;;5035457;28;20234;-52
2022/01/16 07:13:04;;;;;;;30.03;18.97;;;3.50;99.90;;;;;;5035034;28;20210;-52
2022/01/16 07:15:31;;;;;;;25.53;16.17;;;3.40;99.90;;;;;;5035234;28;20213;-52
2022/01/16 07:17:59;;;;;;;25.17;16.17;;;3.40;99.90;;;;;;5035098;28;20210;-54
2022/01/16 07:20:25;;;;;;;26.77;16.70;;;3.40;99.90;;;;;;5034936;28;20226;-53
2022/01/16 07:22:53;;;;;;;25.60;16.37;;;3.30;99.90;;;;;;5035006;28;20234;-54
2022/01/16 07:25:20;;;;;;;23.37;15.63;;;3.30;99.90;;;;;;5035196;28;20260;-53
2022/01/16 07:27:47;;;;;;;25.37;15.90;;;3.40;99.90;;;;;;5035117;28;20241;-53
2022/01/16 07:30:13;;;;;;;24.50;16.27;;;3.50;99.90;;;;;;5034894;28;20238;-53
2022/01/16 07:32:40;;;;;;;25.10;16.53;;;3.60;99.90;;;;;;5034661;28;20677;-53
2022/01/16 07:35:08;;;;;;;26.87;17.63;;;3.70;99.90;;;;;;5034784;28;20749;-53
2022/01/16 07:37:34;;;;;;;25.80;16.23;;;3.80;99.90;;;;;;5034988;28;20260;-54
2022/01/16 07:40:03;;;;;;;27.00;17.63;;;3.80;99.90;;;;;;5034492;28;20784;-53
2022/01/16 07:42:29;;;;;;;26.53;17.40;;;3.80;99.90;;;;;;5034398;28;20225;-54
2022/01/16 07:44:56;;;;;;;27.73;17.10;;;3.80;99.90;;;;;;5033976;28;20268;-54
2022/01/16 07:47:23;;;;;;;27.00;17.00;;;3.80;99.90;;;;;;5034643;28;20213;-53
2022/01/16 07:49:49;;;;;;;32.27;20.37;;;3.90;99.90;;;;;;5034755;28;20230;-53
2022/01/16 07:52:16;;;;;;;27.30;17.97;;;4.00;99.90;;;;;;5034570;28;20654;-54
2022/01/16 07:54:43;;;;;;;26.23;16.77;;;3.90;99.90;;;;;;5034674;28;20202;-54
2022/01/16 07:57:11;;;;;;;21.33;14.90;;;3.70;99.90;;;;;;5034948;28;20210;-53
2022/01/16 07:59:37;;;;;;;23.27;15.60;;;3.60;99.90;;;;;;5034337;28;20272;-53
2022/01/16 08:02:04;;;;;;;44.67;31.20;;;3.60;99.90;;;;;;5034012;28;20260;-53
2022/01/16 08:04:31;;;;;;;27.37;17.33;;;3.80;99.90;;;;;;5034521;28;20260;-53
2022/01/16 08:06:58;;;;;;;29.27;18.10;;;3.90;99.90;;;;;;5034549;28;20233;-54
2022/01/16 08:09:25;;;;;;;24.07;16.07;;;3.90;99.90;;;;;;5034244;28;20226;-53
2022/01/16 08:11:52;;;;;;;23.97;16.40;;;3.90;99.90;;;;;;5033997;28;20206;-53
2022/01/16 08:14:19;;;;;;;33.13;22.63;;;4.00;99.90;;;;;;5034267;28;20298;-53
2022/01/16 08:16:46;;;;;;;35.00;22.07;;;4.10;99.90;;;;;;5033967;28;20264;-53
2022/01/16 08:19:13;;;;;;;22.93;16.57;;;4.30;99.90;;;;;;5034284;28;20238;-54
2022/01/16 08:21:40;;;;;;;26.67;17.03;;;4.30;99.90;;;;;;5033958;28;20206;-53
2022/01/16 08:24:07;;;;;;;24.47;16.27;;;4.40;99.90;;;;;;5033958;28;20696;-53
2022/01/16 08:26:34;;;;;;;26.40;16.97;;;4.50;99.90;;;;;;5033962;28;20210;-53
2022/01/16 08:29:01;;;;;;;27.63;16.83;;;4.50;99.90;;;;;;5033481;28;20697;-53
2022/01/16 08:31:29;;;;;;;25.43;15.83;;;4.50;99.90;;;;;;5033673;28;20206;-53
2022/01/16 08:33:56;;;;;;;24.83;16.60;;;4.60;99.90;;;;;;5033842;28;20221;-53
2022/01/16 08:36:23;;;;;;;25.43;16.60;;;4.60;99.90;;;;;;5033795;28;20218;-53
2022/01/16 08:38:50;;;;;;;22.07;15.63;;;4.60;99.90;;;;;;5033498;28;20202;-55
2022/01/16 08:41:17;;;;;;;25.77;16.20;;;4.60;99.90;;;;;;5033610;28;20411;-54
2022/01/16 08:43:43;;;;;;;26.73;17.57;;;4.60;99.90;;;;;;5033410;28;20234;-55
2022/01/16 08:46:10;;;;;;;25.60;16.73;;;4.60;99.90;;;;;;5033696;28;20214;-53
2022/01/16 08:48:38;;;;;;;27.63;16.97;;;4.70;99.90;;;;;;5033416;28;20210;-54
2022/01/16 08:51:05;;;;;;;31.13;19.63;;;4.70;99.90;;;;;;5033172;28;20222;-53
2022/01/16 08:53:32;;;;;;;27.63;17.70;;;4.80;99.90;;;;;;5033678;28;20206;-53
2022/01/16 08:55:59;;;;;;;23.63;15.93;;;4.90;99.90;;;;;;5032279;28;20214;-55
2022/01/16 08:58:26;;;;;;;27.70;18.07;;;4.80;99.90;;;;;;5033522;28;20203;-54
2022/01/16 09:00:53;;;;;;;28.37;18.13;;;4.80;99.90;;;;;;5033749;28;20233;-54
2022/01/16 09:03:21;;;;;;;27.73;17.97;;;4.90;99.90;;;;;;5033267;28;20237;-53
2022/01/16 09:05:49;;;;;;;77.87;56.27;;;4.90;99.90;;;;;;5033465;28;20211;-53
2022/01/16 09:08:17;;;;;;;30.47;19.10;;;4.90;99.90;;;;;;5033308;28;20202;-54
2022/01/16 09:10:44;;;;;;;28.83;18.70;;;4.80;99.90;;;;;;5033304;28;20237;-55
2022/01/16 09:13:12;;;;;;;27.23;18.30;;;4.80;99.90;;;;;;5033299;28;20209;-54
2022/01/16 09:15:39;;;;;;;27.13;18.50;;;4.70;99.90;;;;;;5032856;28;20696;-53
2022/01/16 09:18:06;;;;;;;27.10;17.20;;;4.60;99.90;;;;;;5033401;28;20214;-55
2022/01/16 09:20:33;;;;;;;26.23;17.63;;;4.60;99.90;;;;;;5032995;28;20252;-55
2022/01/16 09:23:02;;;;;;;30.27;18.63;;;4.50;99.90;;;;;;5032409;28;20776;-59
2022/01/16 09:25:29;;;;;;;31.67;18.80;;;4.50;99.90;;;;;;5032774;28;20675;-57
2022/01/16 09:27:55;;;;;;;28.67;18.33;;;4.60;99.90;;;;;;5032772;28;20674;-58
2022/01/16 09:30:23;;;;;;;26.57;17.40;;;4.70;99.90;;;;;;5032764;28;20234;-57
2022/01/16 09:32:50;;;;;;;27.10;18.47;;;4.80;99.90;;;;;;5032531;28;20210;-56
2022/01/16 09:35:18;;;;;;;27.80;17.60;;;4.90;99.90;;;;;;5032857;28;20202;-57
2022/01/16 09:37:46;;;;;;;26.53;17.63;;;5.00;99.90;;;;;;5032623;28;20221;-57
2022/01/16 09:40:16;;;;;;;26.37;17.70;;;4.90;99.90;;;;;;5032537;28;20230;-57
2022/01/16 09:42:43;;;;;;;24.27;16.60;;;4.80;99.90;;;;;;5032180;28;20708;-57
2022/01/16 09:45:13;;;;;;;28.33;17.93;;;4.60;99.90;;;;;;5032599;28;20284;-57
2022/01/16 09:47:40;;;;;;;30.03;18.13;;;4.60;99.90;;;;;;5032401;28;20210;-56
2022/01/16 09:50:08;;;;;;;27.20;18.43;;;4.70;99.90;;;;;;5032391;28;20592;-57
2022/01/16 09:52:38;;;;;;;25.70;17.13;;;4.80;99.90;;;;;;5032039;28;20206;-57
2022/01/16 09:55:06;;;;;;;27.10;17.47;;;4.90;99.90;;;;;;5032438;28;20218;-57
2022/01/16 09:57:35;;;;;;;29.67;19.37;;;4.90;99.90;;;;;;5032341;28;20205;-57
2022/01/16 10:00:04;;;;;;;29.07;18.37;;;4.90;99.90;;;;;;5032241;28;20237;-57
2022/01/16 10:02:31;;;;;;;30.20;19.03;;;5.00;99.90;;;;;;5031926;28;20669;-57
2022/01/16 10:04:57;;;;;;;29.37;19.33;;;5.10;99.90;;;;;;5032189;28;20210;-57
2022/01/16 10:07:24;;;;;;;27.90;18.60;;;5.10;99.90;;;;;;5031777;28;20264;-56
2022/01/16 10:10:07;;;;;;;28.90;18.73;;;4.90;99.90;;;;;;5032303;28;20261;-56
2022/01/16 10:12:35;;;;;;;29.23;20.07;;;4.90;99.90;;;;;;5031893;28;20288;-57
2022/01/16 10:15:18;;;;;;;29.30;18.07;;;5.00;99.90;;;;;;5032341;28;20213;-57
2022/01/16 10:17:47;;;;;;;29.40;18.77;;;4.90;99.90;;;;;;5032246;28;20221;-56
2022/01/16 10:20:16;;;;;;;28.47;18.47;;;4.90;99.90;;;;;;5033282;28;20233;-57
2022/01/16 10:22:46;;;;;;;29.97;18.73;;;4.90;99.90;;;;;;5032173;28;20226;-57
2022/01/16 10:25:16;;;;;;;28.60;19.13;;;5.00;99.90;;;;;;5032553;28;20273;-57
2022/01/16 10:27:46;;;;;;;29.67;19.33;;;5.20;99.90;;;;;;5032662;28;20631;-57
2022/01/16 10:30:17;;;;;;;27.27;19.80;;;5.30;99.90;;;;;;5047983;22;20292;-61
2022/01/16 10:32:45;;;;;;;29.10;18.73;;;5.40;99.90;;;;;;5043861;28;20224;-62
2022/01/16 10:35:15;;;;;;;28.67;18.93;;;5.50;99.90;;;;;;5052179;28;20205;-62
2022/01/16 10:37:43;;;;;;;66.13;37.57;;;5.60;99.90;;;;;;5052070;28;20215;-61
2022/01/16 10:40:14;;;;;;;30.83;19.53;;;5.50;99.90;;;;;;5052330;28;20282;-61
2022/01/16 10:42:42;;;;;;;30.03;19.17;;;5.30;99.90;;;;;;5051946;28;20225;-61
2022/01/16 10:45:12;;;;;;;29.17;18.43;;;5.30;99.90;;;;;;5052091;28;20205;-63
2022/01/16 10:47:41;;;;;;;27.30;18.40;;;5.30;99.90;;;;;;5052320;28;20213;-60
2022/01/16 10:50:11;;;;;;;28.97;17.93;;;5.20;99.90;;;;;;5051657;28;20283;-60
2022/01/16 10:52:53;;;;;;;29.20;19.10;;;5.20;99.90;;;;;;5051380;28;20247;-60
2022/01/16 10:55:23;;;;;;;26.70;17.67;;;5.20;99.90;;;;;;5051702;28;20913;-60
2022/01/16 10:57:50;;;;;;;24.67;17.33;;;5.20;99.90;;;;;;5051770;28;20205;-60
2022/01/16 11:00:22;;;;;;;28.77;18.40;;;5.20;99.90;;;;;;5051361;28;20233;-61
2022/01/16 11:02:51;;;;;;;26.63;17.73;;;5.20;99.90;;;;;;5051078;28;20723;-60
2022/01/16 11:05:19;;;;;;;25.13;17.30;;;5.10;99.90;;;;;;5051334;28;20213;-61
2022/01/16 11:07:47;;;;;;;28.00;18.63;;;5.10;99.90;;;;;;5051990;28;20205;-61
2022/01/16 11:10:26;;;;;;;23.20;16.43;;;5.20;99.90;;;;;;5051209;28;20610;-61
2022/01/16 11:12:55;;;;;;;26.77;16.83;;;5.20;99.90;;;;;;5051362;28;20615;-61
2022/01/16 11:15:24;;;;;;;27.10;17.13;;;5.10;99.90;;;;;;5051161;28;20626;-61
2022/01/16 11:17:51;;;;;;;26.67;17.27;;;5.10;99.90;;;;;;5051274;28;20255;-61
2022/01/16 11:20:27;;;;;;;28.27;18.67;;;5.00;99.90;;;;;;5053974;28;20221;-61
2022/01/16 11:23:00;;;;;;;27.27;18.37;;;5.00;99.90;;;;;;5054702;28;20221;-61
2022/01/16 11:25:33;;;;;;;26.50;18.00;;;5.10;99.90;;;;;;5054902;28;20213;-61
2022/01/16 11:28:02;;;;;;;24.90;17.93;;;5.10;99.90;;;;;;5054911;28;20259;-61
2022/01/16 11:30:32;;;;;;;26.37;18.17;;;5.20;99.90;;;;;;5054472;28;20654;-60
2022/01/16 11:32:59;;;;;;;32.10;19.90;;;5.30;99.90;;;;;;5054865;28;20202;-60
2022/01/16 11:35:28;;;;;;;30.10;19.77;;;5.40;99.90;;;;;;5054598;28;20240;-61
2022/01/16 11:37:56;;;;;;;27.87;18.33;;;5.50;99.90;;;;;;5054341;28;20668;-61
2022/01/16 11:40:27;;;;;;;28.33;18.23;;;5.60;99.90;;;;;;5054399;28;20229;-61
2022/01/16 11:43:17;;;;;;;30.33;19.37;;;5.80;99.90;;;;;;5054068;28;20635;-61
2022/01/16 11:45:51;;;;;;;28.00;18.50;;;5.80;99.90;;;;;;5053714;28;20210;-61
2022/01/16 11:48:19;;;;;;;27.77;18.57;;;5.70;99.90;;;;;;5053921;28;20213;-62
2022/01/16 11:50:47;;;;;;;28.03;19.27;;;5.50;99.90;;;;;;5054221;28;20648;-64
2022/01/16 11:53:47;;;;;;;27.50;19.10;;;5.40;99.90;;;;;;5054197;28;20202;-61
2022/01/16 11:56:49;;;;;;;31.17;19.83;;;5.30;99.90;;;;;;5054258;28;20209;-61
2022/01/16 11:59:18;;;;;;;29.00;18.17;;;5.30;99.90;;;;;;5054117;28;20211;-61
2022/01/16 12:01:48;;;;;;;27.97;18.13;;;5.40;99.90;;;;;;5053841;28;20205;-62
2022/01/16 12:04:47;;;;;;;27.67;18.80;;;5.30;99.90;;;;;;5054133;28;20225;-61
2022/01/16 12:07:53;;;;;;;26.57;18.10;;;5.30;99.90;;;;;;5054249;28;20206;-61
2022/01/16 12:10:44;;;;;;;28.90;17.67;;;5.20;99.90;;;;;;5054248;28;20664;-61
2022/01/16 12:13:56;;;;;;;26.17;18.23;;;5.30;99.90;;;;;;5054089;28;20201;-61
2022/01/16 12:16:47;;;;;;;26.40;16.10;;;5.30;99.90;;;;;;5053722;28;20263;-60
2022/01/16 12:19:44;;;;;;;36.77;24.73;;;5.30;99.90;;;;;;5054029;28;20209;-61
2022/01/16 12:22:14;;;;;;;26.40;17.57;;;5.30;99.90;;;;;;5053779;28;20205;-61
2022/01/16 12:24:43;;;;;;;27.40;17.77;;;5.30;99.90;;;;;;5053784;28;20290;-60
2022/01/16 12:27:24;;;;;;;25.87;16.63;;;5.40;99.90;;;;;;5054007;28;20202;-63
2022/01/16 12:30:14;;;;;;;29.03;16.90;;;5.40;99.90;;;;;;5053465;28;20241;-62
2022/01/16 12:32:53;;;;;;;26.47;17.70;;;5.60;99.90;;;;;;5053555;28;20213;-62
2022/01/16 12:36:08;;;;;;;24.00;16.33;;;5.60;99.90;;;;;;5053875;28;20210;-61
2022/01/16 12:38:40;;;;;;;24.37;16.70;;;5.60;99.90;;;;;;5053690;28;20206;-61
2022/01/16 12:41:09;;;;;;;26.07;16.10;;;5.70;99.90;;;;;;5053896;28;20287;-61
2022/01/16 12:43:44;;;;;;;25.47;16.23;;;5.80;99.90;;;;;;5053080;28;20648;-61
2022/01/16 12:46:14;;;;;;;27.87;18.13;;;5.90;99.90;;;;;;5053554;28;20267;-62
2022/01/16 12:48:44;;;;;;;24.37;17.17;;;5.90;99.90;;;;;;5053449;28;20201;-62
2022/01/16 12:51:13;;;;;;;23.33;15.67;;;6.00;99.90;;;;;;5053317;28;20234;-62
2022/01/16 12:53:42;;;;;;;26.47;16.60;;;6.00;99.90;;;;;;5052730;28;20208;-62
2022/01/16 12:56:21;;;;;;;26.37;17.10;;;6.00;99.90;;;;;;5053342;28;20214;-62
2022/01/16 12:58:49;;;;;;;26.40;17.73;;;6.10;99.90;;;;;;5053194;28;20692;-61
2022/01/16 13:01:15;;;;;;;24.93;16.87;;;6.20;99.90;;;;;;5053188;28;20225;-62
2022/01/16 13:03:45;;;;;;;28.97;18.83;;;6.20;99.90;;;;;;5052854;28;20276;-62
2022/01/16 13:06:16;;;;;;;27.83;18.77;;;6.20;99.90;;;;;;5052348;28;20723;-61
2022/01/16 13:09:01;;;;;;;24.93;16.50;;;6.10;99.90;;;;;;5053250;28;20259;-61
2022/01/16 13:11:31;;;;;;;24.90;16.43;;;6.20;99.90;;;;;;5052626;28;20281;-61
2022/01/16 13:13:59;;;;;;;22.97;16.43;;;6.20;99.90;;;;;;5052517;28;20266;-60
2022/01/16 13:16:27;;;;;;;25.63;16.80;;;6.30;99.90;;;;;;5052461;28;20259;-61
2022/01/16 13:19:08;;;;;;;24.67;16.57;;;6.40;99.90;;;;;;5052647;28;20232;-61
2022/01/16 13:21:48;;;;;;;25.63;17.13;;;6.50;99.90;;;;;;5052454;28;20257;-62
2022/01/16 13:24:36;;;;;;;23.37;16.40;;;6.50;99.90;;;;;;5053133;28;20222;-62